Virtual Washington ARTCC

Weather

KBWI 302154Z 13010KT 10SM OVC050 10/02 A3009 RMK AO2 SLP189 T01000022
KDCA 302152Z 15010KT 10SM OVC050 12/04 A3009 RMK AO2 SLP188 T01220039
KIAD 302152Z 14010KT 10SM OVC047 12/02 A3006 RMK AO2 SLP180 T01170022
KORF 302151Z 12010KT 10SM OVC065 11/05 A3011 RMK AO2 SLP197 T01110050
KRDU 302151Z 14007KT 10SM BKN046 BKN100 BKN250 18/08 A3002 RMK AO2 SLP164 T01830078

Events



No Events on the scope. Click to learn more about the ZDC events department. Details


ZDC Activity

No controllers online.

News



The information contained on all pages of this website is to be used for flight simulation purposes only on the VATSIM network. It is not intended nor should it be used for real world navigation.This site is not affiliated with the FAA, the actual Washington Center or any governing aviation body. All content contained herein is approved only for use on the VATSIM network. ©2016 Virtual Washington ARTCC -- Source Code © 2016-2017 W. Guisbond and R. Rump.